Time;durP1;ratioP1;P1;durP2;ratioP2;P2;SDS_P1;SDS_P2;PMS_P1;PMS_P2;Temp;Humidity;BMP_temperature;BMP_pressure;BME280_temperature;BME280_humidity;BME280_pressure;Samples;Min_cycle;Max_cycle;Signal;HPM_P1;HPM_P2
2021/11/15 00:00:04;;;;;;;198.88;129.63;;;6.00;90.80;;;;;;5033801;28;20164;-74
2021/11/15 00:02:30;;;;;;;202.75;126.03;;;6.00;90.40;;;;;;5033076;28;20025;-74
2021/11/15 00:04:56;;;;;;;185.70;116.90;;;5.90;90.40;;;;;;5032055;28;20475;-74
2021/11/15 00:07:21;;;;;;;244.52;143.60;;;5.80;90.50;;;;;;5035303;28;20106;-75
2021/11/15 00:09:47;;;;;;;200.57;121.88;;;5.70;90.60;;;;;;5035514;28;20026;-74
2021/11/15 00:12:13;;;;;;;198.35;125.88;;;5.70;91.10;;;;;;5035540;28;20057;-74
2021/11/15 00:14:39;;;;;;;188.75;119.15;;;5.60;91.50;;;;;;5036529;28;20367;-74
2021/11/15 00:17:05;;;;;;;186.55;118.40;;;5.60;91.80;;;;;;5036535;28;20017;-74
2021/11/15 00:19:31;;;;;;;199.10;127.03;;;5.50;92.20;;;;;;5036540;28;20436;-73
2021/11/15 00:21:57;;;;;;;185.60;116.07;;;5.50;92.30;;;;;;5035356;28;20025;-73
2021/11/15 00:24:23;;;;;;;183.50;116.20;;;5.40;92.50;;;;;;5036755;28;20025;-74
2021/11/15 00:26:49;;;;;;;175.98;111.90;;;5.40;92.90;;;;;;5036347;28;20036;-73
2021/11/15 00:29:15;;;;;;;168.73;110.90;;;5.40;93.30;;;;;;5036484;28;20029;-74
2021/11/15 00:31:41;;;;;;;167.30;109.22;;;5.30;93.30;;;;;;5036426;28;20060;-73
2021/11/15 00:34:07;;;;;;;180.55;116.28;;;5.30;93.50;;;;;;5035160;28;20222;-74
2021/11/15 00:36:33;;;;;;;178.32;110.72;;;5.30;93.50;;;;;;5036359;28;20053;-74
2021/11/15 00:38:58;;;;;;;167.73;108.97;;;5.30;93.90;;;;;;5036504;28;20021;-73
2021/11/15 00:41:24;;;;;;;159.88;103.93;;;5.20;93.70;;;;;;5036443;28;20029;-74
2021/11/15 00:43:50;;;;;;;179.48;110.95;;;5.30;93.80;;;;;;5045203;28;20046;-73
2021/11/15 00:46:15;;;;;;;161.55;106.50;;;5.20;93.50;;;;;;5041368;28;20022;-74
2021/11/15 00:48:41;;;;;;;151.88;103.63;;;5.30;93.70;;;;;;5034621;28;20031;-75
2021/11/15 00:51:07;;;;;;;159.20;106.20;;;5.30;93.70;;;;;;5035755;28;20034;-74
2021/11/15 00:53:32;;;;;;;150.23;96.20;;;5.30;93.40;;;;;;5036280;28;20025;-74
2021/11/15 00:55:58;;;;;;;156.93;103.68;;;5.40;93.80;;;;;;5035861;28;20108;-73
2021/11/15 00:58:24;;;;;;;164.32;108.45;;;5.40;93.40;;;;;;5034696;28;20084;-74
2021/11/15 01:00:50;;;;;;;157.57;104.60;;;5.40;93.10;;;;;;5035638;28;20375;-75
2021/11/15 01:03:16;;;;;;;177.55;114.72;;;5.40;93.00;;;;;;5034860;28;20056;-73
2021/11/15 01:05:47;;;;;;;166.95;105.53;;;5.40;93.10;;;;;;5035853;28;20022;-74
2021/11/15 01:08:16;;;;;;;144.15;94.03;;;5.40;93.70;;;;;;5031104;28;20022;-74
2021/11/15 01:10:42;;;;;;;154.93;100.47;;;5.40;94.40;;;;;;5014524;28;20136;-74
2021/11/15 01:13:08;;;;;;;157.32;102.38;;;5.40;94.60;;;;;;5014202;28;20038;-75
2021/11/15 01:15:34;;;;;;;161.70;105.18;;;5.50;94.80;;;;;;5016196;28;20018;-74
2021/11/15 01:18:01;;;;;;;153.75;104.38;;;5.40;94.50;;;;;;5015124;28;20018;-74
2021/11/15 01:20:31;;;;;;;134.95;93.22;;;5.40;94.30;;;;;;5015702;28;20448;-74
2021/11/15 01:22:57;;;;;;;133.27;89.93;;;5.30;94.30;;;;;;5015526;28;20057;-74
2021/11/15 01:25:24;;;;;;;119.15;84.03;;;5.30;94.50;;;;;;5015911;28;20087;-74
2021/11/15 01:27:50;;;;;;;121.72;86.88;;;5.30;94.70;;;;;;5016260;28;20367;-74
2021/11/15 01:30:18;;;;;;;122.50;85.82;;;5.30;94.40;;;;;;5030979;28;20030;-73
2021/11/15 01:32:44;;;;;;;116.80;80.93;;;5.40;94.10;;;;;;5031014;28;20362;-74
2021/11/15 01:35:10;;;;;;;119.35;81.28;;;5.40;94.00;;;;;;5014726;28;20017;-73
2021/11/15 01:37:38;;;;;;;122.50;83.30;;;5.40;94.00;;;;;;5021245;28;20021;-74
2021/11/15 01:40:05;;;;;;;125.22;82.53;;;5.50;93.90;;;;;;5020694;28;20025;-73
2021/11/15 01:42:30;;;;;;;129.90;88.15;;;5.40;93.70;;;;;;5018534;28;20033;-73
2021/11/15 01:44:56;;;;;;;121.43;85.72;;;5.40;93.60;;;;;;5015677;28;20054;-73
2021/11/15 01:47:22;;;;;;;120.60;82.53;;;5.40;93.90;;;;;;5014190;28;20042;-73
2021/11/15 01:49:48;;;;;;;130.38;87.78;;;5.50;93.90;;;;;;5013787;28;20038;-73
2021/11/15 01:52:14;;;;;;;113.70;82.90;;;5.50;93.60;;;;;;5030598;28;20080;-75
2021/11/15 01:54:40;;;;;;;119.88;82.85;;;5.50;93.70;;;;;;5030221;28;20071;-75
2021/11/15 01:57:06;;;;;;;118.57;83.03;;;5.60;94.10;;;;;;5013872;28;20477;-74
2021/11/15 01:59:32;;;;;;;121.88;84.00;;;5.70;94.10;;;;;;5014790;28;20471;-72
2021/11/15 02:01:58;;;;;;;118.35;80.47;;;5.70;93.80;;;;;;5014871;28;20065;-74
2021/11/15 02:04:24;;;;;;;115.45;81.30;;;5.70;93.40;;;;;;5034764;28;20447;-75
2021/11/15 02:06:51;;;;;;;133.45;89.78;;;5.70;93.20;;;;;;5034683;28;20026;-75
2021/11/15 02:09:17;;;;;;;139.48;93.20;;;5.80;93.40;;;;;;5034710;28;20156;-75
2021/11/15 02:11:43;;;;;;;125.30;83.40;;;5.80;93.80;;;;;;5029847;28;20104;-75
2021/11/15 02:14:08;;;;;;;126.30;87.22;;;5.80;93.60;;;;;;5024277;28;20036;-75
2021/11/15 02:16:34;;;;;;;123.60;84.72;;;5.80;93.70;;;;;;5029037;28;20018;-76
2021/11/15 02:19:00;;;;;;;121.35;81.75;;;5.80;93.80;;;;;;5022610;28;20021;-76
2021/11/15 02:21:25;;;;;;;129.73;88.00;;;5.80;94.20;;;;;;5028133;28;20021;-74
2021/11/15 02:23:52;;;;;;;124.70;85.78;;;5.80;94.90;;;;;;5026377;28;20025;-75
2021/11/15 02:26:21;;;;;;;128.13;88.28;;;5.90;95.10;;;;;;5023957;28;20079;-75
2021/11/15 02:28:50;;;;;;;123.32;81.90;;;5.90;94.90;;;;;;5023408;28;20498;-77
2021/11/15 02:31:22;;;;;;;120.07;81.15;;;6.00;95.50;;;;;;5032096;28;20033;-75
2021/11/15 02:33:52;;;;;;;99.57;64.72;;;6.00;95.70;;;;;;5037682;28;20087;-75
2021/11/15 02:36:19;;;;;;;96.00;64.90;;;6.10;96.60;;;;;;5035078;28;20028;-75
2021/11/15 02:38:45;;;;;;;88.88;57.35;;;6.10;97.20;;;;;;5013694;28;20075;-75
2021/11/15 02:41:10;;;;;;;81.85;52.78;;;6.20;97.20;;;;;;5021522;28;20025;-75
2021/11/15 02:43:36;;;;;;;74.95;51.40;;;6.30;96.60;;;;;;5027825;28;20459;-75
2021/11/15 02:46:02;;;;;;;85.70;54.15;;;6.30;96.00;;;;;;5019642;28;20395;-74
2021/11/15 02:48:30;;;;;;;87.88;54.60;;;6.30;95.40;;;;;;5019508;28;20032;-75
2021/11/15 02:50:55;;;;;;;87.95;52.80;;;6.40;95.10;;;;;;5032808;28;20025;-76
2021/11/15 02:53:21;;;;;;;80.28;52.47;;;6.40;94.80;;;;;;5028046;28;20033;-77
2021/11/15 02:55:47;;;;;;;92.82;56.33;;;6.40;94.70;;;;;;5030078;28;20477;-77
2021/11/15 02:58:14;;;;;;;84.90;52.47;;;6.50;94.60;;;;;;5030547;28;20017;-76
2021/11/15 03:00:54;;;;;;;81.93;51.97;;;6.50;94.60;;;;;;5032813;28;20017;-75
2021/11/15 03:03:20;;;;;;;75.00;48.67;;;6.60;94.00;;;;;;5029440;28;20066;-76
2021/11/15 03:05:50;;;;;;;72.38;50.28;;;6.50;93.80;;;;;;5028189;28;20033;-74
2021/11/15 03:08:17;;;;;;;73.45;49.20;;;6.50;93.80;;;;;;5027468;28;20352;-75
2021/11/15 03:10:45;;;;;;;80.40;50.35;;;6.50;93.80;;;;;;5028958;28;20123;-75
2021/11/15 03:13:12;;;;;;;70.57;49.85;;;6.50;93.70;;;;;;5031467;28;20032;-75
2021/11/15 03:15:42;;;;;;;74.88;49.20;;;6.50;93.70;;;;;;5028841;28;20045;-75
2021/11/15 03:18:15;;;;;;;67.10;47.13;;;6.50;93.70;;;;;;5029883;28;20025;-76
2021/11/15 03:20:45;;;;;;;73.88;49.67;;;6.50;93.60;;;;;;5032733;28;20033;-74
2021/11/15 03:23:17;;;;;;;76.50;51.05;;;6.50;93.60;;;;;;5033684;28;20021;-75
2021/11/15 03:25:44;;;;;;;68.22;48.63;;;6.50;93.50;;;;;;5039970;28;20021;-75
2021/11/15 03:28:12;;;;;;;71.30;48.00;;;6.40;93.50;;;;;;5039341;28;20021;-75
2021/11/15 03:30:39;;;;;;;68.25;47.90;;;6.40;93.50;;;;;;5032648;28;20455;-75
2021/11/15 03:33:06;;;;;;;60.05;44.65;;;6.40;93.60;;;;;;5034184;28;20026;-75
2021/11/15 03:35:31;;;;;;;62.65;45.53;;;6.40;93.40;;;;;;5033460;28;20025;-75
2021/11/15 03:37:57;;;;;;;61.42;42.13;;;6.40;93.30;;;;;;5033722;28;20032;-74
2021/11/15 03:40:26;;;;;;;63.00;43.13;;;6.40;93.20;;;;;;5033325;28;20029;-75
2021/11/15 03:42:55;;;;;;;60.75;43.83;;;6.30;93.00;;;;;;5035644;28;20359;-75
2021/11/15 03:45:21;;;;;;;59.88;42.13;;;6.30;93.00;;;;;;5034297;28;20124;-75
2021/11/15 03:47:47;;;;;;;66.28;43.47;;;6.40;92.90;;;;;;5034883;28;20040;-75
2021/11/15 03:50:13;;;;;;;59.45;41.42;;;6.30;92.70;;;;;;5037091;28;20033;-75
2021/11/15 03:52:41;;;;;;;62.95;44.08;;;6.30;92.50;;;;;;5037421;28;20028;-75
2021/11/15 03:55:10;;;;;;;60.38;42.05;;;6.30;92.50;;;;;;5036320;28;20032;-75
2021/11/15 03:57:36;;;;;;;64.13;43.40;;;6.30;92.60;;;;;;5036893;28;20031;-75
2021/11/15 04:00:05;;;;;;;59.30;42.78;;;6.40;92.50;;;;;;5036128;28;20116;-75
2021/11/15 04:02:33;;;;;;;60.03;42.05;;;6.30;92.40;;;;;;5037366;28;20471;-75
2021/11/15 04:05:04;;;;;;;59.63;40.75;;;6.30;92.40;;;;;;5035940;28;20025;-74
2021/11/15 04:07:37;;;;;;;59.83;40.00;;;6.30;92.30;;;;;;5036061;28;20053;-74
2021/11/15 04:10:11;;;;;;;60.85;40.00;;;6.40;92.10;;;;;;5035602;28;20391;-74
2021/11/15 04:12:37;;;;;;;56.60;39.55;;;6.30;91.90;;;;;;5036453;28;20029;-72
2021/11/15 04:15:04;;;;;;;56.67;39.63;;;6.40;91.70;;;;;;5036862;28;20029;-73
2021/11/15 04:17:30;;;;;;;54.45;37.33;;;6.30;91.60;;;;;;5037463;28;20021;-72
2021/11/15 04:19:55;;;;;;;54.35;38.60;;;6.30;91.40;;;;;;5041011;28;20033;-73
2021/11/15 04:22:21;;;;;;;55.58;39.53;;;6.30;91.40;;;;;;5040488;28;20032;-73
2021/11/15 04:24:47;;;;;;;55.90;38.85;;;6.40;91.20;;;;;;5036004;28;20130;-72
2021/11/15 04:27:14;;;;;;;58.92;38.67;;;6.40;91.20;;;;;;5037233;28;20021;-72
2021/11/15 04:29:40;;;;;;;57.28;39.53;;;6.30;91.30;;;;;;5036447;28;20028;-72
2021/11/15 04:32:07;;;;;;;61.05;40.03;;;6.30;91.30;;;;;;5036615;28;20017;-72
2021/11/15 04:34:34;;;;;;;60.97;41.22;;;6.40;91.30;;;;;;5035092;28;20525;-72
2021/11/15 04:37:01;;;;;;;64.45;41.17;;;6.40;91.20;;;;;;5035200;28;20024;-74
2021/11/15 04:39:27;;;;;;;61.33;40.25;;;6.40;91.00;;;;;;5036160;28;20044;-73
2021/11/15 04:41:53;;;;;;;55.55;38.40;;;6.40;90.90;;;;;;5028871;28;20097;-74
2021/11/15 04:44:19;;;;;;;62.30;41.17;;;6.50;90.70;;;;;;5048171;28;20473;-74
2021/11/15 04:46:45;;;;;;;64.90;41.03;;;6.50;90.70;;;;;;5015183;28;20118;-74
2021/11/15 04:49:10;;;;;;;58.53;39.63;;;6.50;90.70;;;;;;5015241;28;20113;-74
2021/11/15 04:51:36;;;;;;;63.03;41.95;;;6.50;90.60;;;;;;5016333;28;20474;-74
2021/11/15 04:54:04;;;;;;;63.67;41.08;;;6.50;90.60;;;;;;5015214;28;20030;-73
2021/11/15 04:56:30;;;;;;;58.50;40.08;;;6.50;90.80;;;;;;5015222;28;20045;-72
2021/11/15 04:58:57;;;;;;;60.92;39.38;;;6.50;90.60;;;;;;5015926;28;20412;-73
2021/11/15 05:01:22;;;;;;;58.70;39.15;;;6.50;90.70;;;;;;5015782;28;20104;-73
2021/11/15 05:03:48;;;;;;;58.50;40.20;;;6.50;90.70;;;;;;5014412;28;20022;-73
2021/11/15 05:06:14;;;;;;;65.75;41.45;;;6.50;90.70;;;;;;5016085;28;20033;-73
2021/11/15 05:08:40;;;;;;;61.85;38.65;;;6.60;90.70;;;;;;5015979;28;20021;-73
2021/11/15 05:11:05;;;;;;;55.35;38.38;;;6.60;90.50;;;;;;5047807;28;20061;-73
2021/11/15 05:13:31;;;;;;;55.38;37.10;;;6.60;90.40;;;;;;5019995;28;20040;-72
2021/11/15 05:15:57;;;;;;;51.33;35.50;;;6.60;90.30;;;;;;5024393;28;20034;-73
2021/11/15 05:18:23;;;;;;;50.65;34.63;;;6.60;90.20;;;;;;5017813;28;20049;-73
2021/11/15 05:20:49;;;;;;;51.83;34.53;;;6.60;90.10;;;;;;5019942;28;20053;-73
2021/11/15 05:23:15;;;;;;;51.67;35.88;;;6.60;90.00;;;;;;5014517;28;20364;-72
2021/11/15 05:25:42;;;;;;;51.55;33.25;;;6.60;89.80;;;;;;5015874;28;20029;-73
2021/11/15 05:28:08;;;;;;;52.83;33.28;;;6.60;89.80;;;;;;5015867;28;20021;-73
2021/11/15 05:30:34;;;;;;;48.65;33.00;;;6.60;89.40;;;;;;5015456;28;20022;-73
2021/11/15 05:33:00;;;;;;;47.72;31.48;;;6.60;89.30;;;;;;5015746;28;20072;-74
2021/11/15 05:35:25;;;;;;;51.97;33.42;;;6.60;89.10;;;;;;5015636;28;20036;-73
2021/11/15 05:37:53;;;;;;;49.58;32.33;;;6.60;89.10;;;;;;5015467;28;20040;-73
2021/11/15 05:40:20;;;;;;;49.35;32.05;;;6.60;89.10;;;;;;5014395;28;20037;-73
2021/11/15 05:42:46;;;;;;;47.03;32.50;;;6.60;88.70;;;;;;5015603;28;20030;-73
2021/11/15 05:45:13;;;;;;;49.10;32.58;;;6.60;88.40;;;;;;5016114;28;20050;-73
2021/11/15 05:47:40;;;;;;;46.92;32.05;;;6.60;88.30;;;;;;5014332;28;20096;-73
2021/11/15 05:50:07;;;;;;;49.00;30.98;;;6.60;88.10;;;;;;5013635;28;20022;-78
2021/11/15 05:52:38;;;;;;;47.65;31.88;;;6.60;88.20;;;;;;5014027;28;20025;-76
2021/11/15 05:55:04;;;;;;;46.67;31.48;;;6.60;88.30;;;;;;5014575;28;20022;-73
2021/11/15 05:57:30;;;;;;;52.13;34.28;;;6.60;88.10;;;;;;5026863;28;20340;-74
2021/11/15 05:59:55;;;;;;;50.80;33.33;;;6.60;88.10;;;;;;5034330;28;20021;-74
2021/11/15 06:02:21;;;;;;;47.92;32.47;;;6.60;88.30;;;;;;5033661;28;20372;-74
2021/11/15 06:04:47;;;;;;;50.53;32.30;;;6.60;88.60;;;;;;5025204;28;20222;-74
2021/11/15 06:07:13;;;;;;;45.60;31.13;;;6.60;88.50;;;;;;5028036;28;20021;-74
2021/11/15 06:09:38;;;;;;;48.88;33.33;;;6.60;88.70;;;;;;5046483;28;20027;-75
2021/11/15 06:12:04;;;;;;;51.78;34.88;;;6.60;88.80;;;;;;5038969;28;20074;-74
2021/11/15 06:14:30;;;;;;;54.03;35.92;;;6.60;88.90;;;;;;5035313;28;20454;-74
2021/11/15 06:16:56;;;;;;;54.03;35.15;;;6.60;89.10;;;;;;5024986;28;20025;-76
2021/11/15 06:19:21;;;;;;;50.72;32.58;;;6.60;89.00;;;;;;5025602;28;20031;-76
2021/11/15 06:21:47;;;;;;;48.88;33.00;;;6.60;88.70;;;;;;5051946;28;20071;-75
2021/11/15 06:24:13;;;;;;;49.70;31.85;;;6.70;88.70;;;;;;5024793;28;20021;-75
2021/11/15 06:26:38;;;;;;;47.97;31.67;;;6.70;89.20;;;;;;5022695;28;20022;-77
2021/11/15 06:29:04;;;;;;;45.65;31.65;;;6.70;88.20;;;;;;5035111;28;20024;-78
2021/11/15 06:31:30;;;;;;;46.72;31.27;;;6.70;88.10;;;;;;5031579;28;20559;-78
2021/11/15 06:33:56;;;;;;;42.28;29.75;;;6.70;88.00;;;;;;5034031;28;20025;-78
2021/11/15 06:36:23;;;;;;;55.75;32.33;;;6.70;87.60;;;;;;5034622;28;20023;-81
2021/11/15 06:38:53;;;;;;;52.35;33.85;;;6.70;87.70;;;;;;5027136;28;20018;-76
2021/11/15 06:41:22;;;;;;;52.33;34.17;;;6.70;87.80;;;;;;5027777;28;20026;-77
2021/11/15 06:43:49;;;;;;;50.28;33.17;;;6.70;87.90;;;;;;5026027;28;20068;-71
2021/11/15 06:46:15;;;;;;;46.40;32.65;;;6.60;87.60;;;;;;5023814;28;20055;-74
2021/11/15 06:48:42;;;;;;;43.88;30.67;;;6.60;87.60;;;;;;5032958;28;20353;-80
2021/11/15 06:51:09;;;;;;;46.25;31.65;;;6.70;87.60;;;;;;5033130;28;20041;-77
2021/11/15 06:53:36;;;;;;;47.00;31.45;;;6.70;87.50;;;;;;5033366;28;20048;-80
2021/11/15 06:56:03;;;;;;;50.58;32.47;;;6.80;87.50;;;;;;5033332;28;20025;-79
2021/11/15 06:58:29;;;;;;;44.40;30.23;;;6.80;87.20;;;;;;5034149;28;20032;-75
2021/11/15 07:00:55;;;;;;;47.17;30.58;;;6.80;87.00;;;;;;5032523;28;20119;-75
2021/11/15 07:03:21;;;;;;;45.28;30.50;;;6.80;87.00;;;;;;5036156;28;20456;-74
2021/11/15 07:05:48;;;;;;;49.33;32.08;;;6.90;87.10;;;;;;5037141;28;20021;-75
2021/11/15 07:08:14;;;;;;;48.63;31.63;;;6.90;87.10;;;;;;5033710;28;20055;-75
2021/11/15 07:10:40;;;;;;;52.97;32.30;;;6.90;86.90;;;;;;5032171;28;20425;-74
2021/11/15 07:13:06;;;;;;;49.25;31.45;;;6.90;87.00;;;;;;5031143;28;20452;-75
2021/11/15 07:15:32;;;;;;;49.28;31.15;;;6.90;86.90;;;;;;5030232;28;20022;-75
2021/11/15 07:17:58;;;;;;;51.03;32.22;;;6.90;86.80;;;;;;5031429;28;20021;-74
2021/11/15 07:20:24;;;;;;;46.58;30.55;;;7.00;86.60;;;;;;5032226;28;20076;-75
2021/11/15 07:22:50;;;;;;;47.72;31.50;;;7.00;86.50;;;;;;5032541;28;20032;-75
2021/11/15 07:25:18;;;;;;;47.80;33.10;;;7.00;86.40;;;;;;5032406;28;20423;-73
2021/11/15 07:27:45;;;;;;;51.63;32.72;;;7.00;86.40;;;;;;5033804;28;20017;-74
2021/11/15 07:30:11;;;;;;;47.90;33.53;;;7.00;86.50;;;;;;5033673;28;20085;-74
2021/11/15 07:32:37;;;;;;;47.30;31.95;;;7.10;86.50;;;;;;5032671;28;20426;-74
2021/11/15 07:35:04;;;;;;;50.58;32.90;;;7.10;86.40;;;;;;5032365;28;20375;-74
2021/11/15 07:37:29;;;;;;;45.85;31.90;;;7.10;86.40;;;;;;5032597;28;20379;-74
2021/11/15 07:39:55;;;;;;;48.97;32.70;;;7.10;86.30;;;;;;5033102;28;20033;-74
2021/11/15 07:42:21;;;;;;;48.13;31.98;;;7.10;86.40;;;;;;5032741;28;20032;-75
2021/11/15 07:44:47;;;;;;;45.45;32.28;;;7.10;86.20;;;;;;5034185;28;20046;-75
2021/11/15 07:47:15;;;;;;;47.70;32.90;;;7.10;86.20;;;;;;5033022;28;20044;-76
2021/11/15 07:49:41;;;;;;;48.10;32.65;;;7.10;86.40;;;;;;5033567;28;20037;-75
2021/11/15 07:52:07;;;;;;;47.95;32.17;;;7.10;86.50;;;;;;5032523;28;20033;-74
2021/11/15 07:54:33;;;;;;;47.83;32.80;;;7.10;86.60;;;;;;5032389;28;20116;-75
2021/11/15 07:56:59;;;;;;;50.75;31.08;;;7.10;86.60;;;;;;5043019;28;20050;-74
2021/11/15 07:59:25;;;;;;;46.78;31.40;;;7.10;86.40;;;;;;5052820;28;20028;-74
2021/11/15 08:01:51;;;;;;;49.42;32.75;;;7.10;86.00;;;;;;5039273;28;20025;-75
2021/11/15 08:04:18;;;;;;;47.40;30.80;;;7.10;85.90;;;;;;5032680;28;20049;-76
2021/11/15 08:06:44;;;;;;;49.75;32.00;;;7.10;85.80;;;;;;5033502;28;20108;-75
2021/11/15 08:09:10;;;;;;;45.72;30.77;;;7.10;86.00;;;;;;5032340;28;20096;-75
2021/11/15 08:11:37;;;;;;;48.10;31.00;;;7.10;85.80;;;;;;5031819;28;20033;-75
2021/11/15 08:14:03;;;;;;;52.08;32.63;;;7.10;85.70;;;;;;5031775;28;20057;-76
2021/11/15 08:16:30;;;;;;;47.63;32.00;;;7.20;85.80;;;;;;5032447;28;20040;-75
2021/11/15 08:18:56;;;;;;;48.28;31.33;;;7.20;85.80;;;;;;5032864;28;20029;-75
2021/11/15 08:21:23;;;;;;;44.83;30.58;;;7.20;85.20;;;;;;5032939;28;20466;-75
2021/11/15 08:23:50;;;;;;;47.17;30.90;;;7.30;85.10;;;;;;5033050;28;20455;-76
2021/11/15 08:26:35;;;;;;;48.38;31.42;;;7.30;84.80;;;;;;5031570;28;20128;-75
2021/11/15 08:29:05;;;;;;;43.10;28.73;;;7.40;84.50;;;;;;5036928;28;20026;-75
2021/11/15 08:31:31;;;;;;;43.65;28.75;;;7.40;84.00;;;;;;5035255;28;20056;-76
2021/11/15 08:33:57;;;;;;;43.50;29.40;;;7.40;83.40;;;;;;5035484;28;20084;-75
2021/11/15 08:36:24;;;;;;;44.80;28.35;;;7.40;83.20;;;;;;5035265;28;20025;-75
2021/11/15 08:39:11;;;;;;;43.35;27.95;;;7.50;83.10;;;;;;5035017;28;20018;-76
2021/11/15 08:41:41;;;;;;;40.78;28.30;;;7.50;82.70;;;;;;5035335;28;20029;-75
2021/11/15 08:44:10;;;;;;;40.97;27.80;;;7.60;82.90;;;;;;5036319;28;20049;-75
2021/11/15 08:46:36;;;;;;;39.83;27.25;;;7.60;82.60;;;;;;5036493;28;20444;-76
2021/11/15 08:49:09;;;;;;;39.28;27.48;;;7.70;82.00;;;;;;5035588;28;20032;-76
2021/11/15 08:51:36;;;;;;;40.08;26.50;;;7.80;81.30;;;;;;5035730;28;20033;-75
2021/11/15 08:54:05;;;;;;;42.80;28.40;;;7.80;80.90;;;;;;5042160;28;20400;-76
2021/11/15 08:56:31;;;;;;;37.33;26.17;;;7.80;80.70;;;;;;5038765;28;20071;-75
2021/11/15 08:59:00;;;;;;;40.05;27.17;;;7.90;80.50;;;;;;5036232;28;20025;-75
2021/11/15 09:01:27;;;;;;;38.35;27.10;;;8.00;80.20;;;;;;5034748;28;20037;-75
2021/11/15 09:03:54;;;;;;;37.78;26.27;;;8.10;79.70;;;;;;5034370;28;20028;-74
2021/11/15 09:06:21;;;;;;;41.28;26.10;;;8.30;79.60;;;;;;5036482;28;20033;-75
2021/11/15 09:08:47;;;;;;;40.67;25.77;;;8.80;79.40;;;;;;5036136;28;20013;-74
2021/11/15 09:11:14;;;;;;;35.95;25.20;;;9.60;78.20;;;;;;5034580;28;20036;-75
2021/11/15 09:13:44;;;;;;;35.78;24.20;;;10.40;75.60;;;;;;5034412;28;20025;-75
2021/11/15 09:16:10;;;;;;;33.97;24.02;;;11.20;73.70;;;;;;5034553;28;20366;-75
2021/11/15 09:18:36;;;;;;;33.38;23.08;;;12.10;71.00;;;;;;5036024;28;20079;-75
2021/11/15 09:21:06;;;;;;;32.17;23.10;;;12.90;68.30;;;;;;5034177;28;20029;-74
2021/11/15 09:23:35;;;;;;;34.20;22.48;;;13.60;65.90;;;;;;5035950;28;20143;-75
2021/11/15 09:26:02;;;;;;;30.13;21.52;;;14.10;64.10;;;;;;5036079;28;20021;-75
2021/11/15 09:28:28;;;;;;;29.75;20.88;;;14.80;62.70;;;;;;5068251;28;20067;-74
2021/11/15 09:30:54;;;;;;;30.00;20.75;;;15.30;60.50;;;;;;5034185;28;20038;-75
2021/11/15 09:33:20;;;;;;;29.00;20.95;;;15.70;59.00;;;;;;5034676;28;20029;-75
2021/11/15 09:35:49;;;;;;;28.15;20.58;;;16.00;57.70;;;;;;5034768;28;20121;-74
2021/11/15 09:38:57;;;;;;;28.30;19.25;;;16.40;56.70;;;;;;5034348;28;20031;-78
2021/11/15 09:42:26;;;;;;;;;;;;;;;;;;;;;
2021/11/15 09:45:12;;;;;;;27.77;20.65;;;16.90;54.00;;;;;;4972678;28;20042;-75
2021/11/15 09:47:40;;;;;;;31.30;23.52;;;17.20;53.70;;;;;;4962763;28;20477;-74
2021/11/15 09:53:05;;;;;;;35.58;21.23;;;17.60;51.70;;;;;;5016648;28;20032;-77
2021/11/15 09:56:09;;;;;;;30.65;22.33;;;18.00;51.20;;;;;;5000992;28;20054;-76
2021/11/15 10:01:47;;;;;;;27.95;19.98;;;18.40;50.20;;;;;;5012802;28;20049;-75
2021/11/15 10:04:16;;;;;;;30.50;20.88;;;18.60;49.90;;;;;;4996393;28;20072;-78
2021/11/15 10:06:56;;;;;;;28.23;20.38;;;18.60;49.10;;;;;;4996377;28;20045;-77
2021/11/15 10:12:37;;;;;;;28.00;21.63;;;18.80;47.80;;;;;;5025542;28;20432;-75
2021/11/15 10:15:07;;;;;;;29.65;20.38;;;18.70;48.20;;;;;;5033482;28;20049;-76
2021/11/15 10:17:48;;;;;;;31.83;20.27;;;18.70;47.60;;;;;;5034827;28;20053;-76
2021/11/15 10:20:20;;;;;;;29.85;18.33;;;18.80;47.70;;;;;;5033361;28;20022;-75
2021/11/15 10:22:46;;;;;;;26.92;18.30;;;19.00;47.10;;;;;;5034715;28;20096;-76
2021/11/15 10:25:13;;;;;;;27.30;16.52;;;18.90;47.00;;;;;;5033229;28;20079;-75
2021/11/15 10:27:39;;;;;;;23.08;14.85;;;18.80;46.80;;;;;;5033594;28;20341;-75
2021/11/15 10:30:15;;;;;;;21.42;14.10;;;18.90;46.50;;;;;;5033043;28;20032;-75
2021/11/15 10:33:00;;;;;;;24.08;15.25;;;18.90;45.60;;;;;;5033313;28;20371;-76
2021/11/15 10:35:48;;;;;;;22.25;13.40;;;18.90;45.40;;;;;;5034399;28;20017;-75
2021/11/15 10:38:19;;;;;;;15.55;11.95;;;18.90;45.00;;;;;;5033301;28;20025;-76
2021/11/15 10:40:44;;;;;;;16.75;11.75;;;18.90;44.50;;;;;;5035098;28;20087;-75
2021/11/15 10:43:10;;;;;;;16.83;10.48;;;18.90;44.60;;;;;;5035903;28;20022;-76
2021/11/15 10:45:39;;;;;;;17.08;12.45;;;19.00;44.10;;;;;;5036421;28;20029;-77
2021/11/15 10:48:17;;;;;;;20.30;13.63;;;18.70;43.80;;;;;;5037734;28;20080;-76
2021/11/15 10:50:49;;;;;;;19.73;13.27;;;18.60;44.30;;;;;;5035911;28;20030;-75
2021/11/15 10:53:23;;;;;;;17.27;11.95;;;18.50;44.30;;;;;;5036040;28;20017;-77
2021/11/15 10:56:10;;;;;;;19.67;11.45;;;18.60;44.40;;;;;;5033889;28;20017;-75
2021/11/15 10:58:41;;;;;;;18.52;11.73;;;18.70;44.30;;;;;;5032908;28;20025;-75
2021/11/15 11:01:08;;;;;;;20.45;12.57;;;18.80;44.40;;;;;;5032884;28;20087;-75
2021/11/15 11:03:37;;;;;;;16.20;11.60;;;18.90;44.40;;;;;;5032555;28;20025;-75
2021/11/15 11:06:15;;;;;;;17.90;11.45;;;18.80;44.00;;;;;;5032965;28;20017;-76
2021/11/15 11:08:48;;;;;;;18.63;12.43;;;18.70;44.20;;;;;;5032439;28;20021;-76
2021/11/15 11:11:24;;;;;;;17.75;12.70;;;18.80;44.30;;;;;;5033430;28;20025;-75
2021/11/15 11:13:54;;;;;;;18.90;12.57;;;18.80;43.90;;;;;;5033236;28;20030;-79
2021/11/15 11:16:36;;;;;;;17.30;11.65;;;18.60;43.50;;;;;;5032281;28;20032;-77
2021/11/15 11:19:20;;;;;;;19.35;12.68;;;18.40;43.50;;;;;;5033852;28;20392;-75
2021/11/15 11:22:23;;;;;;;17.67;12.38;;;18.30;43.80;;;;;;5032506;28;20029;-76
2021/11/15 11:25:10;;;;;;;16.48;12.63;;;18.10;44.20;;;;;;5033514;28;20022;-75
2021/11/15 11:27:39;;;;;;;17.08;12.43;;;18.10;44.20;;;;;;5032523;28;20076;-75
2021/11/15 11:30:17;;;;;;;20.73;13.95;;;18.00;44.20;;;;;;5032314;28;20017;-77
2021/11/15 11:32:57;;;;;;;20.25;13.00;;;17.90;44.50;;;;;;5033683;28;20017;-75
2021/11/15 11:35:41;;;;;;;18.20;12.65;;;18.00;44.80;;;;;;5034180;28;20080;-76
2021/11/15 11:38:18;;;;;;;18.35;13.32;;;18.00;44.30;;;;;;5036643;28;20021;-76
2021/11/15 11:44:51;;;;;;;19.30;13.45;;;17.60;44.30;;;;;;4996465;28;20091;-75
2021/11/15 11:47:20;;;;;;;21.00;12.18;;;17.30;44.70;;;;;;5042918;28;20093;-76
2021/11/15 11:50:16;;;;;;;;;;;;;;;;;;;;;
2021/11/15 11:52:45;;;;;;;22.58;13.60;;;17.20;44.30;;;;;;5035095;28;20033;-76
2021/11/15 11:55:21;;;;;;;18.08;13.25;;;17.20;44.50;;;;;;5035233;28;20108;-74
2021/11/15 11:57:47;;;;;;;21.48;14.80;;;17.00;44.80;;;;;;5032086;28;20478;-74
2021/11/15 12:00:14;;;;;;;21.25;14.20;;;16.90;45.10;;;;;;5032160;28;20025;-75
2021/11/15 12:02:42;;;;;;;19.63;13.48;;;16.70;45.40;;;;;;5035071;28;20028;-75
2021/11/15 12:05:11;;;;;;;18.00;13.60;;;16.50;45.60;;;;;;5035692;28;20026;-74
2021/11/15 12:07:39;;;;;;;20.50;14.80;;;16.40;45.70;;;;;;5036004;28;20045;-75
2021/11/15 12:10:10;;;;;;;21.50;14.48;;;16.10;46.10;;;;;;5036081;28;20474;-75
2021/11/15 12:12:51;;;;;;;22.67;14.88;;;15.90;46.60;;;;;;5037008;28;20117;-75
2021/11/15 12:15:38;;;;;;;22.02;15.52;;;15.70;46.70;;;;;;5035606;28;20029;-74
2021/11/15 12:18:32;;;;;;;21.92;14.63;;;15.50;46.80;;;;;;5036452;28;20032;-74
2021/11/15 12:23:29;;;;;;;21.40;14.95;;;15.00;47.40;;;;;;5036598;28;20032;-74
2021/11/15 12:26:06;;;;;;;21.98;15.07;;;14.70;47.80;;;;;;5036484;28;20108;-74
2021/11/15 12:28:34;;;;;;;23.20;15.45;;;14.30;48.70;;;;;;5035538;28;20021;-74
2021/11/15 12:31:01;;;;;;;22.15;15.52;;;13.90;50.10;;;;;;5039829;28;20120;-75
2021/11/15 12:33:32;;;;;;;23.98;17.33;;;13.60;50.90;;;;;;5046887;28;20033;-74
2021/11/15 12:36:08;;;;;;;24.92;17.83;;;13.10;51.60;;;;;;5039456;28;20056;-75
2021/11/15 12:38:33;;;;;;;;;;;12.50;52.80;;;;;;5035834;28;20025;-74
2021/11/15 12:41:23;;;;;;;27.83;18.85;;;12.00;53.20;;;;;;5038078;28;20000;-75
2021/11/15 12:46:46;;;;;;;24.30;17.38;;;11.20;55.90;;;;;;5037141;28;20032;-76
2021/11/15 12:49:20;;;;;;;24.65;18.40;;;11.00;56.90;;;;;;5036448;28;20053;-75
2021/11/15 12:52:13;;;;;;;23.95;17.38;;;10.70;57.80;;;;;;5036140;28;20028;-74
2021/11/15 12:54:52;;;;;;;24.42;16.92;;;10.50;58.70;;;;;;5030395;28;20033;-75
2021/11/15 12:57:18;;;;;;;25.30;17.23;;;10.20;59.30;;;;;;5034841;28;20025;-76
2021/11/15 12:59:48;;;;;;;23.60;17.42;;;10.10;60.30;;;;;;5036430;28;20049;-75